KASL/ASL METAR and TAF weather

Enter ICAO airport designator
Station Type Date Time Source
KASL METAR 2019/06/18 14:35 UTC NOAA

KASL 181435Z AUTO 28005KT 10SM CLR 26/20 A2997 RMK AO1 T02600201


Station Type Date Time Source
KASL Decoded METAR 2019/06/18 14:35 UTC NOAA

Station name not available
Jun 18, 2019 - 10:35 AM EDT / 2019.06.18 1435 UTC
Wind: from the W (280 degrees) at 6 MPH (5 KT):0
Visibility: 10 mile(s):0
Sky conditions: clear
Temperature: 78.8 F (26.0 C)
Dew Point: 68.2 F (20.1 C)
Relative Humidity: 69%
Pressure (altimeter): 29.97 in. Hg (1014 hPa)
ob: KASL 181435Z AUTO 28005KT 10SM CLR 26/20 A2997 RMK AO1 T02600201
cycle: 14

Station Type Date Time Source
KASL TAF UTC NOAA

Error!

Example: see airport list